sensor_id;sensor_type;location;lat;lon;timestamp;P1;durP1;ratioP1;P2;durP2;ratioP2
36373;SDS011;22399;51.346;12.372;2023-03-08T00:01:17;3.10;;;1.20;;
36373;SDS011;22399;51.346;12.372;2023-03-08T00:03:49;2.95;;;1.60;;
36373;SDS011;22399;51.346;12.372;2023-03-08T00:06:19;2.83;;;1.60;;
36373;SDS011;22399;51.346;12.372;2023-03-08T00:08:47;4.53;;;1.30;;
36373;SDS011;22399;51.346;12.372;2023-03-08T00:11:16;3.40;;;1.20;;
36373;SDS011;22399;51.346;12.372;2023-03-08T00:13:45;2.05;;;1.30;;
36373;SDS011;22399;51.346;12.372;2023-03-08T00:16:14;6.80;;;1.48;;
36373;SDS011;22399;51.346;12.372;2023-03-08T00:18:42;3.70;;;1.48;;
36373;SDS011;22399;51.346;12.372;2023-03-08T00:21:12;4.25;;;1.50;;
36373;SDS011;22399;51.346;12.372;2023-03-08T00:23:42;7.28;;;1.95;;
36373;SDS011;22399;51.346;12.372;2023-03-08T00:26:12;5.18;;;2.15;;
36373;SDS011;22399;51.346;12.372;2023-03-08T00:28:40;2.55;;;1.35;;
36373;SDS011;22399;51.346;12.372;2023-03-08T00:31:11;3.38;;;1.58;;
36373;SDS011;22399;51.346;12.372;2023-03-08T00:33:40;3.20;;;1.48;;
36373;SDS011;22399;51.346;12.372;2023-03-08T00:36:12;5.32;;;2.30;;
36373;SDS011;22399;51.346;12.372;2023-03-08T00:38:43;3.30;;;1.90;;
36373;SDS011;22399;51.346;12.372;2023-03-08T00:41:12;3.90;;;2.08;;
36373;SDS011;22399;51.346;12.372;2023-03-08T00:43:41;6.15;;;2.17;;
36373;SDS011;22399;51.346;12.372;2023-03-08T00:46:12;3.90;;;1.75;;
36373;SDS011;22399;51.346;12.372;2023-03-08T00:48:41;4.78;;;1.85;;
36373;SDS011;22399;51.346;12.372;2023-03-08T00:51:10;7.57;;;1.58;;
36373;SDS011;22399;51.346;12.372;2023-03-08T00:53:40;8.02;;;3.03;;
36373;SDS011;22399;51.346;12.372;2023-03-08T00:56:09;5.00;;;2.20;;
36373;SDS011;22399;51.346;12.372;2023-03-08T00:58:38;6.18;;;2.38;;
36373;SDS011;22399;51.346;12.372;2023-03-08T01:01:11;6.65;;;2.88;;
36373;SDS011;22399;51.346;12.372;2023-03-08T01:03:44;10.38;;;3.22;;
36373;SDS011;22399;51.346;12.372;2023-03-08T01:06:14;7.32;;;2.67;;
36373;SDS011;22399;51.346;12.372;2023-03-08T01:08:42;6.63;;;2.47;;
36373;SDS011;22399;51.346;12.372;2023-03-08T01:11:13;9.07;;;3.17;;
36373;SDS011;22399;51.346;12.372;2023-03-08T01:13:44;7.00;;;2.17;;
36373;SDS011;22399;51.346;12.372;2023-03-08T01:16:15;21.02;;;4.03;;
36373;SDS011;22399;51.346;12.372;2023-03-08T01:18:44;8.65;;;4.03;;
36373;SDS011;22399;51.346;12.372;2023-03-08T01:21:13;11.25;;;3.78;;
36373;SDS011;22399;51.346;12.372;2023-03-08T01:23:42;14.70;;;4.03;;
36373;SDS011;22399;51.346;12.372;2023-03-08T01:26:11;11.25;;;4.25;;
36373;SDS011;22399;51.346;12.372;2023-03-08T01:28:41;13.32;;;4.05;;
36373;SDS011;22399;51.346;12.372;2023-03-08T01:31:10;9.32;;;3.30;;
36373;SDS011;22399;51.346;12.372;2023-03-08T01:33:41;17.60;;;4.60;;
36373;SDS011;22399;51.346;12.372;2023-03-08T01:36:10;9.57;;;3.13;;
36373;SDS011;22399;51.346;12.372;2023-03-08T01:38:43;9.18;;;3.33;;
36373;SDS011;22399;51.346;12.372;2023-03-08T01:41:13;7.40;;;2.42;;
36373;SDS011;22399;51.346;12.372;2023-03-08T01:43:44;10.63;;;3.42;;
36373;SDS011;22399;51.346;12.372;2023-03-08T01:46:17;13.70;;;3.80;;
36373;SDS011;22399;51.346;12.372;2023-03-08T01:49:04;16.70;;;4.70;;
36373;SDS011;22399;51.346;12.372;2023-03-08T01:51:36;10.05;;;3.63;;
36373;SDS011;22399;51.346;12.372;2023-03-08T01:54:09;14.60;;;3.88;;
36373;SDS011;22399;51.346;12.372;2023-03-08T01:56:40;11.50;;;3.08;;
36373;SDS011;22399;51.346;12.372;2023-03-08T01:59:11;11.20;;;4.05;;
36373;SDS011;22399;51.346;12.372;2023-03-08T02:01:40;14.30;;;5.05;;
36373;SDS011;22399;51.346;12.372;2023-03-08T02:04:10;13.13;;;3.95;;
36373;SDS011;22399;51.346;12.372;2023-03-08T02:06:39;10.82;;;3.63;;
36373;SDS011;22399;51.346;12.372;2023-03-08T02:09:09;12.50;;;4.25;;
36373;SDS011;22399;51.346;12.372;2023-03-08T02:11:38;8.07;;;3.67;;
36373;SDS011;22399;51.346;12.372;2023-03-08T02:14:09;4.95;;;2.35;;
36373;SDS011;22399;51.346;12.372;2023-03-08T02:16:41;10.82;;;2.80;;
36373;SDS011;22399;51.346;12.372;2023-03-08T02:19:11;10.55;;;3.95;;
36373;SDS011;22399;51.346;12.372;2023-03-08T02:21:46;20.17;;;5.10;;
36373;SDS011;22399;51.346;12.372;2023-03-08T02:24:18;13.10;;;4.88;;
36373;SDS011;22399;51.346;12.372;2023-03-08T02:26:47;13.77;;;4.55;;
36373;SDS011;22399;51.346;12.372;2023-03-08T02:29:17;15.27;;;4.95;;
36373;SDS011;22399;51.346;12.372;2023-03-08T02:31:46;9.73;;;3.00;;
36373;SDS011;22399;51.346;12.372;2023-03-08T02:34:14;15.40;;;4.32;;
36373;SDS011;22399;51.346;12.372;2023-03-08T02:36:43;11.75;;;4.28;;
36373;SDS011;22399;51.346;12.372;2023-03-08T02:39:12;8.23;;;2.58;;
36373;SDS011;22399;51.346;12.372;2023-03-08T02:41:42;9.32;;;3.45;;
36373;SDS011;22399;51.346;12.372;2023-03-08T02:44:12;10.48;;;3.65;;
36373;SDS011;22399;51.346;12.372;2023-03-08T02:46:40;11.75;;;3.42;;
36373;SDS011;22399;51.346;12.372;2023-03-08T02:49:10;7.07;;;3.17;;
36373;SDS011;22399;51.346;12.372;2023-03-08T02:51:38;11.13;;;3.47;;
36373;SDS011;22399;51.346;12.372;2023-03-08T02:54:07;8.13;;;2.70;;
36373;SDS011;22399;51.346;12.372;2023-03-08T02:56:35;11.10;;;3.15;;
36373;SDS011;22399;51.346;12.372;2023-03-08T02:59:06;9.40;;;3.17;;
36373;SDS011;22399;51.346;12.372;2023-03-08T03:01:34;9.05;;;2.85;;
36373;SDS011;22399;51.346;12.372;2023-03-08T03:04:04;10.45;;;2.85;;
36373;SDS011;22399;51.346;12.372;2023-03-08T03:06:33;7.78;;;2.05;;
36373;SDS011;22399;51.346;12.372;2023-03-08T03:09:04;3.53;;;1.55;;
36373;SDS011;22399;51.346;12.372;2023-03-08T03:11:34;6.50;;;2.38;;
36373;SDS011;22399;51.346;12.372;2023-03-08T03:14:02;7.45;;;1.55;;
36373;SDS011;22399;51.346;12.372;2023-03-08T03:16:37;6.70;;;2.33;;
36373;SDS011;22399;51.346;12.372;2023-03-08T03:19:08;7.20;;;2.58;;
36373;SDS011;22399;51.346;12.372;2023-03-08T03:21:37;6.13;;;2.20;;
36373;SDS011;22399;51.346;12.372;2023-03-08T03:24:06;6.97;;;1.58;;
36373;SDS011;22399;51.346;12.372;2023-03-08T03:26:42;8.18;;;2.05;;
36373;SDS011;22399;51.346;12.372;2023-03-08T03:29:11;4.53;;;1.77;;
36373;SDS011;22399;51.346;12.372;2023-03-08T03:31:43;4.63;;;2.38;;
36373;SDS011;22399;51.346;12.372;2023-03-08T03:34:12;4.30;;;1.90;;
36373;SDS011;22399;51.346;12.372;2023-03-08T03:36:42;5.72;;;1.92;;
36373;SDS011;22399;51.346;12.372;2023-03-08T03:39:11;5.40;;;2.10;;
36373;SDS011;22399;51.346;12.372;2023-03-08T03:41:41;4.75;;;1.92;;
36373;SDS011;22399;51.346;12.372;2023-03-08T03:44:12;5.43;;;1.95;;
36373;SDS011;22399;51.346;12.372;2023-03-08T03:46:45;5.40;;;1.63;;
36373;SDS011;22399;51.346;12.372;2023-03-08T03:49:17;9.90;;;2.10;;
36373;SDS011;22399;51.346;12.372;2023-03-08T03:51:46;4.25;;;1.67;;
36373;SDS011;22399;51.346;12.372;2023-03-08T03:54:22;7.45;;;2.45;;
36373;SDS011;22399;51.346;12.372;2023-03-08T03:56:52;7.55;;;2.20;;
36373;SDS011;22399;51.346;12.372;2023-03-08T03:59:26;3.85;;;1.75;;
36373;SDS011;22399;51.346;12.372;2023-03-08T04:01:57;5.28;;;1.98;;
36373;SDS011;22399;51.346;12.372;2023-03-08T04:04:36;8.38;;;2.13;;
36373;SDS011;22399;51.346;12.372;2023-03-08T04:07:06;5.63;;;1.98;;
36373;SDS011;22399;51.346;12.372;2023-03-08T04:09:39;4.85;;;2.05;;
36373;SDS011;22399;51.346;12.372;2023-03-08T04:12:12;11.20;;;2.90;;
36373;SDS011;22399;51.346;12.372;2023-03-08T04:14:42;7.53;;;2.75;;
36373;SDS011;22399;51.346;12.372;2023-03-08T04:17:13;5.90;;;2.47;;
36373;SDS011;22399;51.346;12.372;2023-03-08T04:19:47;3.28;;;2.25;;
36373;SDS011;22399;51.346;12.372;2023-03-08T04:22:17;5.05;;;2.13;;
36373;SDS011;22399;51.346;12.372;2023-03-08T04:24:52;8.38;;;2.28;;
36373;SDS011;22399;51.346;12.372;2023-03-08T04:27:27;8.38;;;1.67;;
36373;SDS011;22399;51.346;12.372;2023-03-08T04:29:56;4.18;;;1.70;;
36373;SDS011;22399;51.346;12.372;2023-03-08T04:32:28;9.70;;;1.52;;
36373;SDS011;22399;51.346;12.372;2023-03-08T04:34:57;1.95;;;1.42;;
36373;SDS011;22399;51.346;12.372;2023-03-08T04:37:28;8.88;;;1.83;;
36373;SDS011;22399;51.346;12.372;2023-03-08T04:40:04;9.85;;;1.75;;
36373;SDS011;22399;51.346;12.372;2023-03-08T04:42:41;6.07;;;2.17;;
36373;SDS011;22399;51.346;12.372;2023-03-08T04:45:12;10.18;;;2.00;;
36373;SDS011;22399;51.346;12.372;2023-03-08T04:47:42;7.28;;;2.33;;
36373;SDS011;22399;51.346;12.372;2023-03-08T04:50:12;8.65;;;1.80;;
36373;SDS011;22399;51.346;12.372;2023-03-08T04:52:42;5.03;;;1.40;;
36373;SDS011;22399;51.346;12.372;2023-03-08T04:55:10;5.10;;;2.42;;
36373;SDS011;22399;51.346;12.372;2023-03-08T04:57:39;4.35;;;1.95;;
36373;SDS011;22399;51.346;12.372;2023-03-08T05:00:08;5.85;;;1.73;;
36373;SDS011;22399;51.346;12.372;2023-03-08T05:02:39;8.07;;;1.77;;
36373;SDS011;22399;51.346;12.372;2023-03-08T05:05:14;5.95;;;1.83;;
36373;SDS011;22399;51.346;12.372;2023-03-08T05:07:43;8.32;;;2.35;;
36373;SDS011;22399;51.346;12.372;2023-03-08T05:10:11;2.97;;;1.42;;
36373;SDS011;22399;51.346;12.372;2023-03-08T05:12:40;3.63;;;2.08;;
36373;SDS011;22399;51.346;12.372;2023-03-08T05:15:09;9.25;;;3.15;;
36373;SDS011;22399;51.346;12.372;2023-03-08T05:17:38;5.28;;;1.70;;
36373;SDS011;22399;51.346;12.372;2023-03-08T05:20:06;8.48;;;2.33;;
36373;SDS011;22399;51.346;12.372;2023-03-08T05:22:40;9.38;;;2.53;;
36373;SDS011;22399;51.346;12.372;2023-03-08T05:25:29;6.20;;;2.30;;
36373;SDS011;22399;51.346;12.372;2023-03-08T05:27:58;8.48;;;3.00;;
36373;SDS011;22399;51.346;12.372;2023-03-08T05:30:27;7.57;;;2.35;;
36373;SDS011;22399;51.346;12.372;2023-03-08T05:32:56;4.75;;;2.58;;
36373;SDS011;22399;51.346;12.372;2023-03-08T05:35:24;5.32;;;2.13;;
36373;SDS011;22399;51.346;12.372;2023-03-08T05:37:55;11.52;;;3.63;;
36373;SDS011;22399;51.346;12.372;2023-03-08T05:40:25;6.95;;;2.30;;
36373;SDS011;22399;51.346;12.372;2023-03-08T05:42:54;6.95;;;2.75;;
36373;SDS011;22399;51.346;12.372;2023-03-08T05:45:24;9.20;;;2.83;;
36373;SDS011;22399;51.346;12.372;2023-03-08T05:47:53;8.15;;;3.20;;
36373;SDS011;22399;51.346;12.372;2023-03-08T05:50:23;9.43;;;4.03;;
36373;SDS011;22399;51.346;12.372;2023-03-08T05:52:52;9.52;;;3.38;;
36373;SDS011;22399;51.346;12.372;2023-03-08T05:55:26;9.98;;;3.03;;
36373;SDS011;22399;51.346;12.372;2023-03-08T05:57:56;10.05;;;3.03;;
36373;SDS011;22399;51.346;12.372;2023-03-08T06:00:26;10.40;;;3.03;;
36373;SDS011;22399;51.346;12.372;2023-03-08T06:02:57;9.20;;;3.70;;
36373;SDS011;22399;51.346;12.372;2023-03-08T06:05:32;11.73;;;3.75;;
36373;SDS011;22399;51.346;12.372;2023-03-08T06:08:01;6.75;;;3.53;;
36373;SDS011;22399;51.346;12.372;2023-03-08T06:10:31;15.88;;;4.35;;
36373;SDS011;22399;51.346;12.372;2023-03-08T06:12:59;10.60;;;3.70;;
36373;SDS011;22399;51.346;12.372;2023-03-08T06:15:29;12.27;;;4.05;;
36373;SDS011;22399;51.346;12.372;2023-03-08T06:17:58;10.85;;;3.90;;
36373;SDS011;22399;51.346;12.372;2023-03-08T06:20:27;10.85;;;4.28;;
36373;SDS011;22399;51.346;12.372;2023-03-08T06:22:55;14.98;;;4.85;;
36373;SDS011;22399;51.346;12.372;2023-03-08T06:25:24;9.32;;;3.08;;
36373;SDS011;22399;51.346;12.372;2023-03-08T06:27:54;10.90;;;4.45;;
36373;SDS011;22399;51.346;12.372;2023-03-08T06:30:31;19.85;;;4.28;;
36373;SDS011;22399;51.346;12.372;2023-03-08T06:33:02;12.75;;;4.45;;
36373;SDS011;22399;51.346;12.372;2023-03-08T06:35:30;14.80;;;4.72;;
36373;SDS011;22399;51.346;12.372;2023-03-08T06:38:01;12.93;;;4.13;;
36373;SDS011;22399;51.346;12.372;2023-03-08T06:40:30;12.98;;;3.55;;
36373;SDS011;22399;51.346;12.372;2023-03-08T06:42:59;19.52;;;5.15;;
36373;SDS011;22399;51.346;12.372;2023-03-08T06:45:28;13.60;;;3.92;;
36373;SDS011;22399;51.346;12.372;2023-03-08T06:47:56;13.38;;;5.25;;
36373;SDS011;22399;51.346;12.372;2023-03-08T06:50:27;7.07;;;3.58;;
36373;SDS011;22399;51.346;12.372;2023-03-08T06:52:55;13.52;;;4.05;;
36373;SDS011;22399;51.346;12.372;2023-03-08T06:55:37;12.07;;;3.58;;
36373;SDS011;22399;51.346;12.372;2023-03-08T06:58:08;10.00;;;4.15;;
36373;SDS011;22399;51.346;12.372;2023-03-08T07:00:36;10.82;;;3.85;;
36373;SDS011;22399;51.346;12.372;2023-03-08T07:03:05;21.50;;;5.70;;
36373;SDS011;22399;51.346;12.372;2023-03-08T07:05:33;21.73;;;4.78;;
36373;SDS011;22399;51.346;12.372;2023-03-08T07:08:02;10.90;;;4.40;;
36373;SDS011;22399;51.346;12.372;2023-03-08T07:10:30;18.60;;;5.35;;
36373;SDS011;22399;51.346;12.372;2023-03-08T07:12:59;15.90;;;3.88;;
36373;SDS011;22399;51.346;12.372;2023-03-08T07:15:29;11.55;;;4.35;;
36373;SDS011;22399;51.346;12.372;2023-03-08T07:17:57;15.48;;;3.90;;
36373;SDS011;22399;51.346;12.372;2023-03-08T07:20:26;10.10;;;3.65;;
36373;SDS011;22399;51.346;12.372;2023-03-08T07:22:54;8.77;;;3.67;;
36373;SDS011;22399;51.346;12.372;2023-03-08T07:25:24;14.20;;;5.05;;
36373;SDS011;22399;51.346;12.372;2023-03-08T07:27:52;10.85;;;3.45;;
36373;SDS011;22399;51.346;12.372;2023-03-08T07:30:21;7.35;;;3.20;;
36373;SDS011;22399;51.346;12.372;2023-03-08T07:32:52;10.07;;;3.25;;
36373;SDS011;22399;51.346;12.372;2023-03-08T07:35:21;11.90;;;4.40;;
36373;SDS011;22399;51.346;12.372;2023-03-08T07:37:49;27.05;;;3.78;;
36373;SDS011;22399;51.346;12.372;2023-03-08T07:40:17;11.23;;;4.57;;
36373;SDS011;22399;51.346;12.372;2023-03-08T07:42:46;11.93;;;3.35;;
36373;SDS011;22399;51.346;12.372;2023-03-08T07:45:26;17.67;;;3.80;;
36373;SDS011;22399;51.346;12.372;2023-03-08T07:47:56;13.15;;;4.18;;
36373;SDS011;22399;51.346;12.372;2023-03-08T07:50:25;12.73;;;4.93;;
36373;SDS011;22399;51.346;12.372;2023-03-08T07:52:54;11.48;;;3.22;;
36373;SDS011;22399;51.346;12.372;2023-03-08T07:55:22;11.13;;;3.85;;
36373;SDS011;22399;51.346;12.372;2023-03-08T07:57:51;10.88;;;3.33;;
36373;SDS011;22399;51.346;12.372;2023-03-08T08:00:19;7.68;;;3.60;;
36373;SDS011;22399;51.346;12.372;2023-03-08T08:02:48;8.13;;;3.08;;
36373;SDS011;22399;51.346;12.372;2023-03-08T08:05:20;8.55;;;2.47;;
36373;SDS011;22399;51.346;12.372;2023-03-08T08:07:49;10.85;;;3.60;;
36373;SDS011;22399;51.346;12.372;2023-03-08T08:10:18;10.15;;;3.30;;
36373;SDS011;22399;51.346;12.372;2023-03-08T08:12:46;8.07;;;3.30;;
36373;SDS011;22399;51.346;12.372;2023-03-08T08:15:14;6.32;;;2.92;;
36373;SDS011;22399;51.346;12.372;2023-03-08T08:17:44;13.90;;;3.50;;
36373;SDS011;22399;51.346;12.372;2023-03-08T08:20:13;10.80;;;3.20;;
36373;SDS011;22399;51.346;12.372;2023-03-08T08:22:43;8.07;;;3.45;;
36373;SDS011;22399;51.346;12.372;2023-03-08T08:25:11;10.20;;;3.22;;
36373;SDS011;22399;51.346;12.372;2023-03-08T08:27:39;9.73;;;3.60;;
36373;SDS011;22399;51.346;12.372;2023-03-08T08:30:08;13.30;;;3.92;;
36373;SDS011;22399;51.346;12.372;2023-03-08T08:32:39;8.65;;;3.50;;
36373;SDS011;22399;51.346;12.372;2023-03-08T08:35:08;8.93;;;3.67;;
36373;SDS011;22399;51.346;12.372;2023-03-08T08:37:36;12.02;;;4.00;;
36373;SDS011;22399;51.346;12.372;2023-03-08T08:40:10;14.00;;;3.75;;
36373;SDS011;22399;51.346;12.372;2023-03-08T08:42:39;10.10;;;3.78;;
36373;SDS011;22399;51.346;12.372;2023-03-08T08:45:08;12.43;;;3.53;;
36373;SDS011;22399;51.346;12.372;2023-03-08T08:47:37;8.43;;;2.75;;
36373;SDS011;22399;51.346;12.372;2023-03-08T08:50:05;11.60;;;3.95;;
36373;SDS011;22399;51.346;12.372;2023-03-08T08:52:34;12.88;;;4.03;;
36373;SDS011;22399;51.346;12.372;2023-03-08T08:55:03;12.73;;;3.33;;
36373;SDS011;22399;51.346;12.372;2023-03-08T08:57:34;13.77;;;4.13;;
36373;SDS011;22399;51.346;12.372;2023-03-08T09:00:02;8.15;;;3.13;;
36373;SDS011;22399;51.346;12.372;2023-03-08T09:02:33;13.50;;;4.10;;
36373;SDS011;22399;51.346;12.372;2023-03-08T09:05:01;11.70;;;3.75;;
36373;SDS011;22399;51.346;12.372;2023-03-08T09:07:30;39.25;;;4.72;;
36373;SDS011;22399;51.346;12.372;2023-03-08T09:09:58;11.52;;;4.18;;
36373;SDS011;22399;51.346;12.372;2023-03-08T09:12:27;14.15;;;4.63;;
36373;SDS011;22399;51.346;12.372;2023-03-08T09:14:58;12.27;;;4.68;;
36373;SDS011;22399;51.346;12.372;2023-03-08T09:17:27;10.80;;;3.88;;
36373;SDS011;22399;51.346;12.372;2023-03-08T09:19:55;7.07;;;3.35;;
36373;SDS011;22399;51.346;12.372;2023-03-08T09:22:25;15.57;;;4.38;;
36373;SDS011;22399;51.346;12.372;2023-03-08T09:24:53;13.35;;;4.65;;
36373;SDS011;22399;51.346;12.372;2023-03-08T09:27:21;9.73;;;4.03;;
36373;SDS011;22399;51.346;12.372;2023-03-08T09:29:50;9.10;;;3.53;;
36373;SDS011;22399;51.346;12.372;2023-03-08T09:32:19;8.05;;;3.67;;
36373;SDS011;22399;51.346;12.372;2023-03-08T09:34:48;7.25;;;3.22;;
36373;SDS011;22399;51.346;12.372;2023-03-08T09:37:17;10.18;;;4.07;;
36373;SDS011;22399;51.346;12.372;2023-03-08T09:39:49;9.63;;;3.28;;
36373;SDS011;22399;51.346;12.372;2023-03-08T09:42:18;9.77;;;3.95;;
36373;SDS011;22399;51.346;12.372;2023-03-08T09:45:00;12.05;;;3.05;;
36373;SDS011;22399;51.346;12.372;2023-03-08T09:47:42;8.73;;;3.53;;
36373;SDS011;22399;51.346;12.372;2023-03-08T09:50:24;9.55;;;3.53;;
36373;SDS011;22399;51.346;12.372;2023-03-08T09:53:02;11.00;;;3.20;;
36373;SDS011;22399;51.346;12.372;2023-03-08T09:55:35;9.38;;;3.25;;
36373;SDS011;22399;51.346;12.372;2023-03-08T09:58:13;14.82;;;5.20;;
36373;SDS011;22399;51.346;12.372;2023-03-08T10:00:47;9.55;;;3.80;;
36373;SDS011;22399;51.346;12.372;2023-03-08T10:03:24;11.52;;;3.55;;
36373;SDS011;22399;51.346;12.372;2023-03-08T10:06:12;12.20;;;3.92;;
36373;SDS011;22399;51.346;12.372;2023-03-08T10:08:48;13.65;;;4.40;;
36373;SDS011;22399;51.346;12.372;2023-03-08T10:11:24;11.55;;;4.28;;
36373;SDS011;22399;51.346;12.372;2023-03-08T10:13:59;11.35;;;4.97;;
36373;SDS011;22399;51.346;12.372;2023-03-08T10:16:33;9.32;;;4.00;;
36373;SDS011;22399;51.346;12.372;2023-03-08T10:19:12;13.70;;;5.63;;
36373;SDS011;22399;51.346;12.372;2023-03-08T10:21:43;11.95;;;5.22;;
36373;SDS011;22399;51.346;12.372;2023-03-08T10:24:14;13.50;;;4.57;;
36373;SDS011;22399;51.346;12.372;2023-03-08T10:26:44;11.75;;;4.75;;
36373;SDS011;22399;51.346;12.372;2023-03-08T10:29:18;8.10;;;3.72;;
36373;SDS011;22399;51.346;12.372;2023-03-08T10:31:47;15.73;;;5.03;;
36373;SDS011;22399;51.346;12.372;2023-03-08T10:34:21;9.77;;;3.80;;
36373;SDS011;22399;51.346;12.372;2023-03-08T10:36:52;15.27;;;4.50;;
36373;SDS011;22399;51.346;12.372;2023-03-08T10:39:25;10.25;;;4.82;;
36373;SDS011;22399;51.346;12.372;2023-03-08T10:41:55;12.82;;;4.82;;
36373;SDS011;22399;51.346;12.372;2023-03-08T10:44:28;8.80;;;3.55;;
36373;SDS011;22399;51.346;12.372;2023-03-08T10:47:00;12.18;;;5.25;;
36373;SDS011;22399;51.346;12.372;2023-03-08T10:49:32;13.15;;;5.03;;
36373;SDS011;22399;51.346;12.372;2023-03-08T10:52:00;13.80;;;4.63;;
36373;SDS011;22399;51.346;12.372;2023-03-08T10:54:28;12.48;;;4.25;;
36373;SDS011;22399;51.346;12.372;2023-03-08T10:56:57;9.85;;;4.78;;
36373;SDS011;22399;51.346;12.372;2023-03-08T10:59:27;21.15;;;5.22;;
36373;SDS011;22399;51.346;12.372;2023-03-08T11:02:00;9.75;;;4.00;;
36373;SDS011;22399;51.346;12.372;2023-03-08T11:04:36;10.38;;;3.72;;
36373;SDS011;22399;51.346;12.372;2023-03-08T11:07:08;11.15;;;3.67;;
36373;SDS011;22399;51.346;12.372;2023-03-08T11:09:38;13.32;;;3.90;;
36373;SDS011;22399;51.346;12.372;2023-03-08T11:12:08;6.80;;;3.38;;
36373;SDS011;22399;51.346;12.372;2023-03-08T11:14:49;12.38;;;5.28;;
36373;SDS011;22399;51.346;12.372;2023-03-08T11:17:19;11.27;;;5.15;;
36373;SDS011;22399;51.346;12.372;2023-03-08T11:19:54;11.93;;;4.65;;
36373;SDS011;22399;51.346;12.372;2023-03-08T11:25:34;20.70;;;4.93;;
36373;SDS011;22399;51.346;12.372;2023-03-08T11:28:21;14.05;;;4.82;;
36373;SDS011;22399;51.346;12.372;2023-03-08T11:31:03;9.00;;;4.30;;
36373;SDS011;22399;51.346;12.372;2023-03-08T11:39:23;9.38;;;3.90;;
36373;SDS011;22399;51.346;12.372;2023-03-08T11:41:55;13.80;;;5.10;;
36373;SDS011;22399;51.346;12.372;2023-03-08T11:44:30;7.28;;;3.80;;
36373;SDS011;22399;51.346;12.372;2023-03-08T11:47:20;13.05;;;5.53;;
36373;SDS011;22399;51.346;12.372;2023-03-08T11:50:06;18.95;;;5.78;;
36373;SDS011;22399;51.346;12.372;2023-03-08T11:52:42;13.85;;;6.38;;
36373;SDS011;22399;51.346;12.372;2023-03-08T11:55:27;12.70;;;4.88;;
36373;SDS011;22399;51.346;12.372;2023-03-08T11:58:10;18.38;;;5.32;;
36373;SDS011;22399;51.346;12.372;2023-03-08T12:00:46;22.23;;;5.10;;
36373;SDS011;22399;51.346;12.372;2023-03-08T12:03:17;14.32;;;4.38;;
36373;SDS011;22399;51.346;12.372;2023-03-08T12:05:48;13.45;;;4.90;;
36373;SDS011;22399;51.346;12.372;2023-03-08T12:08:21;11.32;;;4.75;;
36373;SDS011;22399;51.346;12.372;2023-03-08T12:10:53;17.73;;;5.35;;
36373;SDS011;22399;51.346;12.372;2023-03-08T12:13:24;14.63;;;5.47;;
36373;SDS011;22399;51.346;12.372;2023-03-08T12:15:58;15.60;;;5.88;;
36373;SDS011;22399;51.346;12.372;2023-03-08T12:18:33;10.30;;;4.97;;
36373;SDS011;22399;51.346;12.372;2023-03-08T12:21:09;17.25;;;5.40;;
36373;SDS011;22399;51.346;12.372;2023-03-08T12:23:47;18.08;;;5.35;;
36373;SDS011;22399;51.346;12.372;2023-03-08T12:26:24;11.48;;;4.68;;
36373;SDS011;22399;51.346;12.372;2023-03-08T12:28:57;13.20;;;4.75;;
36373;SDS011;22399;51.346;12.372;2023-03-08T12:31:30;20.67;;;5.35;;
36373;SDS011;22399;51.346;12.372;2023-03-08T12:34:10;13.00;;;4.30;;
36373;SDS011;22399;51.346;12.372;2023-03-08T12:36:41;10.50;;;4.07;;
36373;SDS011;22399;51.346;12.372;2023-03-08T12:39:23;14.60;;;4.55;;
36373;SDS011;22399;51.346;12.372;2023-03-08T12:41:57;17.33;;;5.43;;
36373;SDS011;22399;51.346;12.372;2023-03-08T12:44:32;16.88;;;5.88;;
36373;SDS011;22399;51.346;12.372;2023-03-08T12:47:01;15.95;;;5.97;;
36373;SDS011;22399;51.346;12.372;2023-03-08T12:49:48;16.48;;;5.50;;
36373;SDS011;22399;51.346;12.372;2023-03-08T12:52:25;12.18;;;5.05;;
36373;SDS011;22399;51.346;12.372;2023-03-08T12:54:59;14.80;;;5.30;;
36373;SDS011;22399;51.346;12.372;2023-03-08T12:57:31;14.07;;;4.78;;
36373;SDS011;22399;51.346;12.372;2023-03-08T13:00:04;17.08;;;5.32;;
36373;SDS011;22399;51.346;12.372;2023-03-08T13:02:57;12.38;;;4.75;;
36373;SDS011;22399;51.346;12.372;2023-03-08T13:05:28;17.23;;;5.80;;
36373;SDS011;22399;51.346;12.372;2023-03-08T13:10:56;14.07;;;4.53;;
36373;SDS011;22399;51.346;12.372;2023-03-08T13:13:42;18.70;;;5.55;;
36373;SDS011;22399;51.346;12.372;2023-03-08T13:16:28;10.60;;;4.57;;
36373;SDS011;22399;51.346;12.372;2023-03-08T13:19:00;17.42;;;6.35;;
36373;SDS011;22399;51.346;12.372;2023-03-08T13:21:48;21.38;;;5.68;;
36373;SDS011;22399;51.346;12.372;2023-03-08T13:24:23;25.73;;;6.28;;
36373;SDS011;22399;51.346;12.372;2023-03-08T13:27:11;13.63;;;5.22;;
36373;SDS011;22399;51.346;12.372;2023-03-08T13:29:47;14.32;;;5.30;;
36373;SDS011;22399;51.346;12.372;2023-03-08T13:32:16;16.02;;;4.40;;
36373;SDS011;22399;51.346;12.372;2023-03-08T13:34:50;12.48;;;5.30;;
36373;SDS011;22399;51.346;12.372;2023-03-08T13:37:26;18.88;;;6.00;;
36373;SDS011;22399;51.346;12.372;2023-03-08T13:39:56;34.03;;;6.15;;
36373;SDS011;22399;51.346;12.372;2023-03-08T13:42:27;20.08;;;6.20;;
36373;SDS011;22399;51.346;12.372;2023-03-08T13:45:05;14.02;;;5.35;;
36373;SDS011;22399;51.346;12.372;2023-03-08T13:47:36;23.85;;;6.60;;
36373;SDS011;22399;51.346;12.372;2023-03-08T13:50:13;17.83;;;5.95;;
36373;SDS011;22399;51.346;12.372;2023-03-08T13:52:45;17.45;;;6.13;;
36373;SDS011;22399;51.346;12.372;2023-03-08T13:55:16;24.02;;;6.22;;
36373;SDS011;22399;51.346;12.372;2023-03-08T13:57:50;16.00;;;6.28;;
36373;SDS011;22399;51.346;12.372;2023-03-08T14:00:25;19.45;;;6.43;;
36373;SDS011;22399;51.346;12.372;2023-03-08T14:03:01;19.02;;;6.25;;
36373;SDS011;22399;51.346;12.372;2023-03-08T14:05:33;22.45;;;6.38;;
36373;SDS011;22399;51.346;12.372;2023-03-08T14:08:16;20.52;;;6.57;;
36373;SDS011;22399;51.346;12.372;2023-03-08T14:10:46;17.50;;;5.43;;
36373;SDS011;22399;51.346;12.372;2023-03-08T14:13:21;22.52;;;8.15;;
36373;SDS011;22399;51.346;12.372;2023-03-08T14:15:53;18.53;;;6.10;;
36373;SDS011;22399;51.346;12.372;2023-03-08T14:18:24;18.92;;;6.05;;
36373;SDS011;22399;51.346;12.372;2023-03-08T14:20:58;25.05;;;5.65;;
36373;SDS011;22399;51.346;12.372;2023-03-08T14:23:32;25.15;;;6.15;;
36373;SDS011;22399;51.346;12.372;2023-03-08T14:26:05;21.70;;;7.35;;
36373;SDS011;22399;51.346;12.372;2023-03-08T14:29:00;14.93;;;6.20;;
36373;SDS011;22399;51.346;12.372;2023-03-08T14:31:31;11.88;;;4.70;;
36373;SDS011;22399;51.346;12.372;2023-03-08T14:34:00;21.55;;;6.22;;
36373;SDS011;22399;51.346;12.372;2023-03-08T14:36:30;14.02;;;6.03;;
36373;SDS011;22399;51.346;12.372;2023-03-08T14:39:00;21.15;;;6.25;;
36373;SDS011;22399;51.346;12.372;2023-03-08T14:41:30;19.05;;;7.22;;
36373;SDS011;22399;51.346;12.372;2023-03-08T14:44:01;17.17;;;7.00;;
36373;SDS011;22399;51.346;12.372;2023-03-08T14:46:31;17.42;;;7.10;;
36373;SDS011;22399;51.346;12.372;2023-03-08T14:49:00;16.33;;;6.72;;
36373;SDS011;22399;51.346;12.372;2023-03-08T14:51:35;27.70;;;6.72;;
36373;SDS011;22399;51.346;12.372;2023-03-08T14:54:18;15.55;;;6.82;;
36373;SDS011;22399;51.346;12.372;2023-03-08T14:56:49;24.42;;;6.70;;
36373;SDS011;22399;51.346;12.372;2023-03-08T14:59:19;23.70;;;7.80;;
36373;SDS011;22399;51.346;12.372;2023-03-08T15:04:22;21.25;;;6.82;;
36373;SDS011;22399;51.346;12.372;2023-03-08T15:06:52;19.17;;;6.50;;